WXM80 ListenWXM80 Stop

You find our weather info also at:

UK Metoffice

WeatherCloud

Weather Underground

Northeastern Weather Network

AWEKAS

Citizen Weather Observer Program (CWOP)

HAMweather, WeatherForYou, PWS Weather


Weather Underground History page Text

Daily Summary for January 5, 2017 Units:  Both    English   Metric
« Previous Day
Next Day »
Daily Weekly Monthly Yearly Custom
  High: Low: Average:
Temperature: 35.4 °F /  1.9 °C 28.4 °F /  -2 °C 31.2 °F /  -0.4 °C
Dew Point: 18.8 °F /  -7.3 °C 12.4 °F /  -10.9 °C 15.7 °F /  -9.1 °C
Humidity: 58 % 47 % 52 %
Wind Speed: 11.5 mph /  18.5 km/h - 4.8 mph /  7.7 km/h
Wind Gust: 29.0 mph /  46.7 km/h - -
Wind:- - WSW
Pressure: 29.97 in /  1014.8 hPa 29.67 in /  1004.6 hPa -
Precipitation: 0.00 in /  0 mm    
Historical Graphs
 
 
Tabular Data for January 5, 2017
Time Temperature Dew Point Pressure Wind Wind Speed Wind Gust Humidity Rainfall Rate (Hourly)
00:02 35.4 °F /  1.9 °C 17.6 °F /  -8 °C 29.67 in /  1004.6 hPa South 10.5 mph /  16.9 km/h 29.0 mph /  46.7 km/h 48 % 0.00 in /  0 mm
00:07 35.3 °F /  1.8 °C 17.5 °F /  -8.1 °C 29.68 in /  1005 hPa WNW 10.3 mph /  16.6 km/h 29.0 mph /  46.7 km/h 48 % 0.00 in /  0 mm
00:12 35.1 °F /  1.7 °C 17.4 °F /  -8.1 °C 29.67 in /  1004.6 hPa West 11.5 mph /  18.5 km/h 29.0 mph /  46.7 km/h 48 % 0.00 in /  0 mm
00:17 35.1 °F /  1.7 °C 17.8 °F /  -7.9 °C 29.68 in /  1005 hPa SW 3.7 mph /  6 km/h 29.0 mph /  46.7 km/h 49 % 0.00 in /  0 mm
00:23 34.9 °F /  1.6 °C 18.1 °F /  -7.7 °C 29.68 in /  1005 hPa West 7.6 mph /  12.2 km/h 29.0 mph /  46.7 km/h 50 % 0.00 in /  0 mm
00:28 34.8 °F /  1.6 °C 18.0 °F /  -7.8 °C 29.69 in /  1005.3 hPa NW 7.4 mph /  11.9 km/h 29.0 mph /  46.7 km/h 50 % 0.00 in /  0 mm
00:33 34.7 °F /  1.5 °C 17.9 °F /  -7.8 °C 29.69 in /  1005.3 hPa NW 9.8 mph /  15.8 km/h 29.0 mph /  46.7 km/h 50 % 0.00 in /  0 mm
00:38 34.6 °F /  1.4 °C 18.3 °F /  -7.6 °C 29.69 in /  1005.3 hPa West 7.8 mph /  12.6 km/h 29.0 mph /  46.7 km/h 51 % 0.00 in /  0 mm
00:43 34.5 °F /  1.4 °C 18.2 °F /  -7.7 °C 29.69 in /  1005.3 hPa West 5.1 mph /  8.2 km/h 29.0 mph /  46.7 km/h 51 % 0.00 in /  0 mm
00:48 34.4 °F /  1.3 °C 18.1 °F /  -7.7 °C 29.70 in /  1005.6 hPa WSW 7.0 mph /  11.3 km/h 29.0 mph /  46.7 km/h 51 % 0.00 in /  0 mm
00:53 34.2 °F /  1.2 °C 17.0 °F /  -8.3 °C 29.70 in /  1005.6 hPa West 5.4 mph /  8.7 km/h 29.0 mph /  46.7 km/h 49 % 0.00 in /  0 mm
00:58 34.1 °F /  1.2 °C 17.4 °F /  -8.1 °C 29.70 in /  1005.6 hPa South 8.3 mph /  13.4 km/h 29.0 mph /  46.7 km/h 50 % 0.00 in /  0 mm
01:03 34.1 °F /  1.2 °C 17.4 °F /  -8.1 °C 29.71 in /  1006 hPa SW 11.0 mph /  17.7 km/h 29.0 mph /  46.7 km/h 50 % 0.00 in /  0 mm
01:08 34.1 °F /  1.2 °C 17.4 °F /  -8.1 °C 29.71 in /  1006 hPa SW 9.6 mph /  15.4 km/h 29.0 mph /  46.7 km/h 50 % 0.00 in /  0 mm
01:13 34.0 °F /  1.1 °C 17.7 °F /  -7.9 °C 29.71 in /  1006 hPa WSW 10.7 mph /  17.2 km/h 29.0 mph /  46.7 km/h 51 % 0.00 in /  0 mm
01:18 33.9 °F /  1.1 °C 17.2 °F /  -8.2 °C 29.71 in /  1006 hPa WNW 8.0 mph /  12.9 km/h 29.0 mph /  46.7 km/h 50 % 0.00 in /  0 mm
01:23 33.8 °F /  1 °C 17.1 °F /  -8.3 °C 29.71 in /  1006 hPa WNW 6.2 mph /  10 km/h 29.0 mph /  46.7 km/h 50 % 0.00 in /  0 mm
01:28 33.7 °F /  0.9 °C 17.5 °F /  -8.1 °C 29.72 in /  1006.3 hPa WNW 5.7 mph /  9.2 km/h 29.0 mph /  46.7 km/h 51 % 0.00 in /  0 mm
01:33 33.6 °F /  0.9 °C 17.8 °F /  -7.9 °C 29.73 in /  1006.7 hPa WSW 9.3 mph /  15 km/h 29.0 mph /  46.7 km/h 52 % 0.00 in /  0 mm
01:38 33.6 °F /  0.9 °C 18.3 °F /  -7.6 °C 29.73 in /  1006.7 hPa WSW 5.8 mph /  9.3 km/h 29.0 mph /  46.7 km/h 53 % 0.00 in /  0 mm
01:43 33.5 °F /  0.8 °C 18.2 °F /  -7.7 °C 29.72 in /  1006.3 hPa West 4.5 mph /  7.2 km/h 29.0 mph /  46.7 km/h 53 % 0.00 in /  0 mm
01:49 33.4 °F /  0.8 °C 18.5 °F /  -7.5 °C 29.73 in /  1006.7 hPa WSW 9.4 mph /  15.1 km/h 29.0 mph /  46.7 km/h 54 % 0.00 in /  0 mm
01:54 33.3 °F /  0.7 °C 18.0 °F /  -7.8 °C 29.73 in /  1006.7 hPa WSW 7.9 mph /  12.7 km/h 29.0 mph /  46.7 km/h 53 % 0.00 in /  0 mm
01:59 33.2 °F /  0.7 °C 17.5 °F /  -8.1 °C 29.73 in /  1006.7 hPa WSW 7.6 mph /  12.2 km/h 29.0 mph /  46.7 km/h 52 % 0.00 in /  0 mm
02:04 33.1 °F /  0.6 °C 17.8 °F /  -7.9 °C 29.73 in /  1006.7 hPa WSW 8.2 mph /  13.2 km/h 29.0 mph /  46.7 km/h 53 % 0.00 in /  0 mm
02:09 33.0 °F /  0.6 °C 17.3 °F /  -8.2 °C 29.73 in /  1006.7 hPa SW 8.8 mph /  14.2 km/h 29.0 mph /  46.7 km/h 52 % 0.00 in /  0 mm
02:14 32.9 °F /  0.5 °C 17.2 °F /  -8.2 °C 29.73 in /  1006.7 hPa WNW 9.7 mph /  15.6 km/h 29.0 mph /  46.7 km/h 52 % 0.00 in /  0 mm
02:19 32.9 °F /  0.5 °C 17.2 °F /  -8.2 °C 29.73 in /  1006.7 hPa WSW 4.9 mph /  7.9 km/h 29.0 mph /  46.7 km/h 52 % 0.00 in /  0 mm
02:24 32.8 °F /  0.4 °C 17.5 °F /  -8.1 °C 29.74 in /  1007 hPa WNW 7.9 mph /  12.7 km/h 29.0 mph /  46.7 km/h 53 % 0.00 in /  0 mm
02:29 32.6 °F /  0.3 °C 16.9 °F /  -8.4 °C 29.74 in /  1007 hPa West 9.0 mph /  14.5 km/h 16.0 mph /  25.7 km/h 52 % 0.00 in /  0 mm
02:34 32.6 °F /  0.3 °C 17.3 °F /  -8.2 °C 29.74 in /  1007 hPa West 8.0 mph /  12.9 km/h 12.0 mph /  19.3 km/h 53 % 0.00 in /  0 mm
02:39 32.5 °F /  0.3 °C 17.2 °F /  -8.2 °C 29.73 in /  1006.7 hPa West 6.0 mph /  9.7 km/h 16.0 mph /  25.7 km/h 53 % 0.00 in /  0 mm
02:44 32.4 °F /  0.2 °C 17.1 °F /  -8.3 °C 29.73 in /  1006.7 hPa West 9.0 mph /  14.5 km/h 16.0 mph /  25.7 km/h 53 % 0.00 in /  0 mm
02:49 32.2 °F /  0.1 °C 17.0 °F /  -8.3 °C 29.73 in /  1006.7 hPa West 5.0 mph /  8 km/h 14.0 mph /  22.5 km/h 53 % 0.00 in /  0 mm
02:54 32.1 °F /  0.1 °C 16.9 °F /  -8.4 °C 29.74 in /  1007 hPa West 8.0 mph /  12.9 km/h 15.0 mph /  24.1 km/h 53 % 0.00 in /  0 mm
02:59 32.1 °F /  0.1 °C 17.3 °F /  -8.2 °C 29.75 in /  1007.3 hPa WSW 8.3 mph /  13.4 km/h 29.0 mph /  46.7 km/h 54 % 0.00 in /  0 mm
03:04 32.1 °F /  0.1 °C 17.7 °F /  -7.9 °C 29.76 in /  1007.7 hPa WSW 7.0 mph /  11.3 km/h 20.0 mph /  32.2 km/h 55 % 0.00 in /  0 mm
03:09 32.0 °F /  0 °C 18.5 °F /  -7.5 °C 29.76 in /  1007.7 hPa WSW 5.0 mph /  8 km/h 10.0 mph /  16.1 km/h 57 % 0.00 in /  0 mm
03:14 32.0 °F /  0 °C 18.0 °F /  -7.8 °C 29.76 in /  1007.7 hPa WSW 9.0 mph /  14.5 km/h 18.0 mph /  29 km/h 56 % 0.00 in /  0 mm
03:19 31.9 °F /  -0.1 °C 18.4 °F /  -7.6 °C 29.76 in /  1007.7 hPa WSW 8.9 mph /  14.3 km/h 29.0 mph /  46.7 km/h 57 % 0.00 in /  0 mm
03:24 31.8 °F /  -0.1 °C 17.9 °F /  -7.8 °C 29.77 in /  1008 hPa WSW 6.0 mph /  9.7 km/h 16.0 mph /  25.7 km/h 56 % 0.00 in /  0 mm
03:29 31.7 °F /  -0.2 °C 17.8 °F /  -7.9 °C 29.77 in /  1008 hPa WSW 9.0 mph /  14.5 km/h 20.0 mph /  32.2 km/h 56 % 0.00 in /  0 mm
03:34 31.6 °F /  -0.2 °C 18.1 °F /  -7.7 °C 29.78 in /  1008.4 hPa WSW 7.0 mph /  11.3 km/h 16.0 mph /  25.7 km/h 57 % 0.00 in /  0 mm
03:39 31.5 °F /  -0.3 °C 17.2 °F /  -8.2 °C 29.78 in /  1008.4 hPa WSW 8.0 mph /  12.9 km/h 16.0 mph /  25.7 km/h 55 % 0.00 in /  0 mm
03:44 31.4 °F /  -0.3 °C 17.5 °F /  -8.1 °C 29.78 in /  1008.4 hPa SW 6.0 mph /  9.7 km/h 16.0 mph /  25.7 km/h 56 % 0.00 in /  0 mm
03:49 31.3 °F /  -0.4 °C 17.4 °F /  -8.1 °C 29.78 in /  1008.4 hPa West 8.9 mph /  14.3 km/h 29.0 mph /  46.7 km/h 56 % 0.00 in /  0 mm
03:54 31.2 °F /  -0.4 °C 16.9 °F /  -8.4 °C 29.78 in /  1008.4 hPa SW 3.0 mph /  4.8 km/h 16.0 mph /  25.7 km/h 55 % 0.00 in /  0 mm
03:59 31.1 °F /  -0.5 °C 16.8 °F /  -8.4 °C 29.79 in /  1008.7 hPa West 7.4 mph /  11.9 km/h 29.0 mph /  46.7 km/h 55 % 0.00 in /  0 mm
04:04 31.0 °F /  -0.6 °C 17.1 °F /  -8.3 °C 29.79 in /  1008.7 hPa West 9.0 mph /  14.5 km/h 29.0 mph /  46.7 km/h 56 % 0.00 in /  0 mm
04:09 31.0 °F /  -0.6 °C 17.5 °F /  -8.1 °C 29.79 in /  1008.7 hPa SW 5.0 mph /  8 km/h 29.0 mph /  46.7 km/h 57 % 0.00 in /  0 mm
04:14 30.9 °F /  -0.6 °C 17.0 °F /  -8.3 °C 29.80 in /  1009 hPa West 5.4 mph /  8.7 km/h 29.0 mph /  46.7 km/h 56 % 0.00 in /  0 mm
04:19 30.9 °F /  -0.6 °C 17.0 °F /  -8.3 °C 29.79 in /  1008.7 hPa SW 5.3 mph /  8.5 km/h 29.0 mph /  46.7 km/h 56 % 0.00 in /  0 mm
04:24 30.8 °F /  -0.7 °C 16.9 °F /  -8.4 °C 29.79 in /  1008.7 hPa WSW 4.6 mph /  7.4 km/h 29.0 mph /  46.7 km/h 56 % 0.00 in /  0 mm
04:29 30.8 °F /  -0.7 °C 16.1 °F /  -8.8 °C 29.80 in /  1009 hPa West 7.2 mph /  11.6 km/h 29.0 mph /  46.7 km/h 54 % 0.00 in /  0 mm
04:35 30.8 °F /  -0.7 °C 15.7 °F /  -9.1 °C 29.81 in /  1009.4 hPa West 8.3 mph /  13.4 km/h 29.0 mph /  46.7 km/h 53 % 0.00 in /  0 mm
04:40 30.7 °F /  -0.7 °C 16.0 °F /  -8.9 °C 29.80 in /  1009 hPa WSW 5.7 mph /  9.2 km/h 29.0 mph /  46.7 km/h 54 % 0.00 in /  0 mm
04:45 30.7 °F /  -0.7 °C 16.0 °F /  -8.9 °C 29.80 in /  1009 hPa WSW 7.5 mph /  12.1 km/h 29.0 mph /  46.7 km/h 54 % 0.00 in /  0 mm
04:50 30.6 °F /  -0.8 °C 15.9 °F /  -8.9 °C 29.80 in /  1009 hPa WSW 9.9 mph /  15.9 km/h 29.0 mph /  46.7 km/h 54 % 0.00 in /  0 mm
04:55 30.5 °F /  -0.8 °C 15.4 °F /  -9.2 °C 29.81 in /  1009.4 hPa WSW 6.5 mph /  10.5 km/h 29.0 mph /  46.7 km/h 53 % 0.00 in /  0 mm
05:00 30.4 °F /  -0.9 °C 15.3 °F /  -9.3 °C 29.81 in /  1009.4 hPa WNW 6.4 mph /  10.3 km/h 29.0 mph /  46.7 km/h 53 % 0.00 in /  0 mm
05:05 30.3 °F /  -0.9 °C 14.8 °F /  -9.6 °C 29.82 in /  1009.7 hPa West 6.6 mph /  10.6 km/h 29.0 mph /  46.7 km/h 52 % 0.00 in /  0 mm
05:10 30.2 °F /  -1 °C 14.7 °F /  -9.6 °C 29.82 in /  1009.7 hPa SW 6.0 mph /  9.7 km/h 29.0 mph /  46.7 km/h 52 % 0.00 in /  0 mm
05:15 30.1 °F /  -1.1 °C 14.6 °F /  -9.7 °C 29.83 in /  1010 hPa WNW 9.3 mph /  15 km/h 29.0 mph /  46.7 km/h 52 % 0.00 in /  0 mm
05:20 30.1 °F /  -1.1 °C 14.1 °F /  -9.9 °C 29.83 in /  1010 hPa WSW 9.2 mph /  14.8 km/h 29.0 mph /  46.7 km/h 51 % 0.00 in /  0 mm
05:25 29.9 °F /  -1.2 °C 13.0 °F /  -10.6 °C 29.83 in /  1010 hPa West 8.7 mph /  14 km/h 29.0 mph /  46.7 km/h 49 % 0.00 in /  0 mm
05:30 29.8 °F /  -1.2 °C 12.9 °F /  -10.6 °C 29.83 in /  1010 hPa WSW 9.7 mph /  15.6 km/h 29.0 mph /  46.7 km/h 49 % 0.00 in /  0 mm
05:35 29.7 °F /  -1.3 °C 12.4 °F /  -10.9 °C 29.84 in /  1010.4 hPa West 10.4 mph /  16.7 km/h 29.0 mph /  46.7 km/h 48 % 0.00 in /  0 mm
05:41 29.6 °F /  -1.3 °C 12.8 °F /  -10.7 °C 29.85 in /  1010.7 hPa WSW 10.2 mph /  16.4 km/h 29.0 mph /  46.7 km/h 49 % 0.00 in /  0 mm
05:46 29.5 °F /  -1.4 °C 12.7 °F /  -10.7 °C 29.84 in /  1010.4 hPa West 4.2 mph /  6.8 km/h 29.0 mph /  46.7 km/h 49 % 0.00 in /  0 mm
05:51 29.4 °F /  -1.4 °C 13.0 °F /  -10.6 °C 29.85 in /  1010.7 hPa West 2.4 mph /  3.9 km/h 29.0 mph /  46.7 km/h 50 % 0.00 in /  0 mm
05:56 29.4 °F /  -1.4 °C 13.9 °F /  -10.1 °C 29.85 in /  1010.7 hPa West 8.6 mph /  13.8 km/h 29.0 mph /  46.7 km/h 52 % 0.00 in /  0 mm
06:01 29.4 °F /  -1.4 °C 14.8 °F /  -9.6 °C 29.85 in /  1010.7 hPa West 3.9 mph /  6.3 km/h 29.0 mph /  46.7 km/h 54 % 0.00 in /  0 mm
06:06 29.3 °F /  -1.5 °C 15.1 °F /  -9.4 °C 29.86 in /  1011.1 hPa SW 9.0 mph /  14.5 km/h 29.0 mph /  46.7 km/h 55 % 0.00 in /  0 mm
06:11 29.2 °F /  -1.6 °C 15.0 °F /  -9.4 °C 29.86 in /  1011.1 hPa WSW 5.6 mph /  9 km/h 29.0 mph /  46.7 km/h 55 % 0.00 in /  0 mm
06:16 29.2 °F /  -1.6 °C 15.4 °F /  -9.2 °C 29.87 in /  1011.4 hPa WSW 6.8 mph /  10.9 km/h 29.0 mph /  46.7 km/h 56 % 0.00 in /  0 mm
06:21 29.1 °F /  -1.6 °C 14.5 °F /  -9.7 °C 29.87 in /  1011.4 hPa SW 11.4 mph /  18.3 km/h 29.0 mph /  46.7 km/h 54 % 0.00 in /  0 mm
06:26 29.0 °F /  -1.7 °C 14.4 °F /  -9.8 °C 29.87 in /  1011.4 hPa WSW 8.9 mph /  14.3 km/h 29.0 mph /  46.7 km/h 54 % 0.00 in /  0 mm
06:31 29.0 °F /  -1.7 °C 14.4 °F /  -9.8 °C 29.87 in /  1011.4 hPa WSW 6.5 mph /  10.5 km/h 29.0 mph /  46.7 km/h 54 % 0.00 in /  0 mm
06:36 29.0 °F /  -1.7 °C 14.0 °F /  -10 °C 29.88 in /  1011.7 hPa WSW 3.0 mph /  4.8 km/h 29.0 mph /  46.7 km/h 53 % 0.00 in /  0 mm
06:41 28.9 °F /  -1.7 °C 14.3 °F /  -9.8 °C 29.87 in /  1011.4 hPa West 5.8 mph /  9.3 km/h 29.0 mph /  46.7 km/h 54 % 0.00 in /  0 mm
06:47 28.8 °F /  -1.8 °C 13.8 °F /  -10.1 °C 29.88 in /  1011.7 hPa WSW 2.4 mph /  3.9 km/h 29.0 mph /  46.7 km/h 53 % 0.00 in /  0 mm
06:52 28.8 °F /  -1.8 °C 14.6 °F /  -9.7 °C 29.88 in /  1011.7 hPa WSW 5.2 mph /  8.4 km/h 29.0 mph /  46.7 km/h 55 % 0.00 in /  0 mm
06:57 28.7 °F /  -1.8 °C 14.6 °F /  -9.7 °C 29.88 in /  1011.7 hPa WSW 8.0 mph /  12.9 km/h 29.0 mph /  46.7 km/h 55 % 0.00 in /  0 mm
07:02 28.6 °F /  -1.9 °C 14.0 °F /  -10 °C 29.88 in /  1011.7 hPa South 5.3 mph /  8.5 km/h 29.0 mph /  46.7 km/h 54 % 0.00 in /  0 mm
07:07 28.5 °F /  -1.9 °C 13.9 °F /  -10.1 °C 29.89 in /  1012.1 hPa SW 8.3 mph /  13.4 km/h 29.0 mph /  46.7 km/h 54 % 0.00 in /  0 mm
07:12 28.5 °F /  -1.9 °C 13.9 °F /  -10.1 °C 29.89 in /  1012.1 hPa SSW 9.8 mph /  15.8 km/h 29.0 mph /  46.7 km/h 54 % 0.00 in /  0 mm
07:17 28.5 °F /  -1.9 °C 13.9 °F /  -10.1 °C 29.90 in /  1012.4 hPa WSW 6.8 mph /  10.9 km/h 29.0 mph /  46.7 km/h 54 % 0.00 in /  0 mm
07:22 28.4 °F /  -2 °C 14.3 °F /  -9.8 °C 29.90 in /  1012.4 hPa SSW 7.8 mph /  12.6 km/h 29.0 mph /  46.7 km/h 55 % 0.00 in /  0 mm
07:27 28.4 °F /  -2 °C 14.7 °F /  -9.6 °C 29.90 in /  1012.4 hPa WNW 6.3 mph /  10.1 km/h 29.0 mph /  46.7 km/h 56 % 0.00 in /  0 mm
07:32 28.4 °F /  -2 °C 13.9 °F /  -10.1 °C 29.91 in /  1012.8 hPa West 8.8 mph /  14.2 km/h 29.0 mph /  46.7 km/h 54 % 0.00 in /  0 mm
07:37 28.4 °F /  -2 °C 14.3 °F /  -9.8 °C 29.91 in /  1012.8 hPa WNW 4.1 mph /  6.6 km/h 29.0 mph /  46.7 km/h 55 % 0.00 in /  0 mm
07:42 28.5 °F /  -1.9 °C 14.8 °F /  -9.6 °C 29.91 in /  1012.8 hPa WSW 7.8 mph /  12.6 km/h 29.0 mph /  46.7 km/h 56 % 0.00 in /  0 mm
07:47 28.5 °F /  -1.9 °C 14.8 °F /  -9.6 °C 29.90 in /  1012.4 hPa WNW 5.5 mph /  8.9 km/h 29.0 mph /  46.7 km/h 56 % 0.00 in /  0 mm
07:53 28.6 °F /  -1.9 °C 14.9 °F /  -9.5 °C 29.90 in /  1012.4 hPa SW 8.9 mph /  14.3 km/h 29.0 mph /  46.7 km/h 56 % 0.00 in /  0 mm
07:58 28.6 °F /  -1.9 °C 14.5 °F /  -9.7 °C 29.90 in /  1012.4 hPa WNW 6.8 mph /  10.9 km/h 29.0 mph /  46.7 km/h 55 % 0.00 in /  0 mm
08:03 28.6 °F /  -1.9 °C 14.9 °F /  -9.5 °C 29.90 in /  1012.4 hPa WNW 6.3 mph /  10.1 km/h 29.0 mph /  46.7 km/h 56 % 0.00 in /  0 mm
08:08 28.6 °F /  -1.9 °C 14.5 °F /  -9.7 °C 29.91 in /  1012.8 hPa WSW 8.5 mph /  13.7 km/h 29.0 mph /  46.7 km/h 55 % 0.00 in /  0 mm
08:13 28.6 °F /  -1.9 °C 14.5 °F /  -9.7 °C 29.91 in /  1012.8 hPa West 6.6 mph /  10.6 km/h 29.0 mph /  46.7 km/h 55 % 0.00 in /  0 mm
08:18 28.5 °F /  -1.9 °C 14.4 °F /  -9.8 °C 29.91 in /  1012.8 hPa SW 6.4 mph /  10.3 km/h 29.0 mph /  46.7 km/h 55 % 0.00 in /  0 mm
08:23 28.5 °F /  -1.9 °C 14.4 °F /  -9.8 °C 29.91 in /  1012.8 hPa West 7.7 mph /  12.4 km/h 29.0 mph /  46.7 km/h 55 % 0.00 in /  0 mm
08:28 28.5 °F /  -1.9 °C 14.4 °F /  -9.8 °C 29.91 in /  1012.8 hPa SW 7.6 mph /  12.2 km/h 29.0 mph /  46.7 km/h 55 % 0.00 in /  0 mm
08:33 28.5 °F /  -1.9 °C 14.4 °F /  -9.8 °C 29.91 in /  1012.8 hPa NW 4.6 mph /  7.4 km/h 29.0 mph /  46.7 km/h 55 % 0.00 in /  0 mm
08:38 28.6 °F /  -1.9 °C 14.5 °F /  -9.7 °C 29.91 in /  1012.8 hPa SW 4.8 mph /  7.7 km/h 29.0 mph /  46.7 km/h 55 % 0.00 in /  0 mm
08:43 28.6 °F /  -1.9 °C 14.5 °F /  -9.7 °C 29.91 in /  1012.8 hPa WNW 4.6 mph /  7.4 km/h 29.0 mph /  46.7 km/h 55 % 0.00 in /  0 mm
08:48 28.7 °F /  -1.8 °C 14.1 °F /  -9.9 °C 29.91 in /  1012.8 hPa West 8.0 mph /  12.9 km/h 29.0 mph /  46.7 km/h 54 % 0.00 in /  0 mm
08:54 28.7 °F /  -1.8 °C 14.6 °F /  -9.7 °C 29.91 in /  1012.8 hPa West 3.0 mph /  4.8 km/h 29.0 mph /  46.7 km/h 55 % 0.00 in /  0 mm
08:59 28.8 °F /  -1.8 °C 14.6 °F /  -9.7 °C 29.92 in /  1013.1 hPa NW 3.9 mph /  6.3 km/h 29.0 mph /  46.7 km/h 55 % 0.00 in /  0 mm
09:04 28.9 °F /  -1.7 °C 13.9 °F /  -10.1 °C 29.92 in /  1013.1 hPa West 7.6 mph /  12.2 km/h 29.0 mph /  46.7 km/h 53 % 0.00 in /  0 mm
09:09 29.0 °F /  -1.7 °C 14.0 °F /  -10 °C 29.92 in /  1013.1 hPa West 5.3 mph /  8.5 km/h 29.0 mph /  46.7 km/h 53 % 0.00 in /  0 mm
09:14 29.0 °F /  -1.7 °C 14.4 °F /  -9.8 °C 29.93 in /  1013.4 hPa WSW 6.2 mph /  10 km/h 29.0 mph /  46.7 km/h 54 % 0.00 in /  0 mm
09:19 29.1 °F /  -1.6 °C 13.6 °F /  -10.2 °C 29.93 in /  1013.4 hPa WNW 4.4 mph /  7.1 km/h 29.0 mph /  46.7 km/h 52 % 0.00 in /  0 mm
09:24 29.2 °F /  -1.6 °C 14.2 °F /  -9.9 °C 29.94 in /  1013.8 hPa West 2.4 mph /  3.9 km/h 29.0 mph /  46.7 km/h 53 % 0.00 in /  0 mm
09:29 29.4 °F /  -1.4 °C 14.4 °F /  -9.8 °C 29.94 in /  1013.8 hPa WSW 9.9 mph /  15.9 km/h 29.0 mph /  46.7 km/h 53 % 0.00 in /  0 mm
09:34 29.5 °F /  -1.4 °C 14.0 °F /  -10 °C 29.95 in /  1014.1 hPa WSW 4.8 mph /  7.7 km/h 29.0 mph /  46.7 km/h 52 % 0.00 in /  0 mm
09:39 29.6 °F /  -1.3 °C 14.5 °F /  -9.7 °C 29.95 in /  1014.1 hPa WSW 5.0 mph /  8 km/h 15.0 mph /  24.1 km/h 53 % 0.00 in /  0 mm
09:44 29.6 °F /  -1.3 °C 14.1 °F /  -9.9 °C 29.96 in /  1014.4 hPa WSW 7.0 mph /  11.3 km/h 17.0 mph /  27.4 km/h 52 % 0.00 in /  0 mm
09:49 29.6 °F /  -1.3 °C 14.1 °F /  -9.9 °C 29.96 in /  1014.4 hPa WSW 6.0 mph /  9.7 km/h 17.0 mph /  27.4 km/h 52 % 0.00 in /  0 mm
09:54 29.6 °F /  -1.3 °C 14.1 °F /  -9.9 °C 29.97 in /  1014.8 hPa West 6.5 mph /  10.5 km/h 29.0 mph /  46.7 km/h 52 % 0.00 in /  0 mm
09:59 29.7 °F /  -1.3 °C 14.2 °F /  -9.9 °C 29.96 in /  1014.4 hPa West 2.5 mph /  4 km/h 29.0 mph /  46.7 km/h 52 % 0.00 in /  0 mm
10:04 29.7 °F /  -1.3 °C 13.8 °F /  -10.1 °C 29.96 in /  1014.4 hPa West 5.8 mph /  9.3 km/h 29.0 mph /  46.7 km/h 51 % 0.00 in /  0 mm
10:09 29.8 °F /  -1.2 °C 14.3 °F /  -9.8 °C 29.97 in /  1014.8 hPa West 8.6 mph /  13.8 km/h 29.0 mph /  46.7 km/h 52 % 0.00 in /  0 mm
10:14 29.8 °F /  -1.2 °C 13.9 °F /  -10.1 °C 29.96 in /  1014.4 hPa SW 7.5 mph /  12.1 km/h 29.0 mph /  46.7 km/h 51 % 0.00 in /  0 mm
10:19 29.9 °F /  -1.2 °C 14.4 °F /  -9.8 °C 29.96 in /  1014.4 hPa West 9.1 mph /  14.6 km/h 29.0 mph /  46.7 km/h 52 % 0.00 in /  0 mm
10:25 30.0 °F /  -1.1 °C 13.6 °F /  -10.2 °C 29.95 in /  1014.1 hPa WNW 3.5 mph /  5.6 km/h 29.0 mph /  46.7 km/h 50 % 0.00 in /  0 mm
10:30 30.1 °F /  -1.1 °C 14.1 °F /  -9.9 °C 29.95 in /  1014.1 hPa West 8.9 mph /  14.3 km/h 29.0 mph /  46.7 km/h 51 % 0.00 in /  0 mm
10:35 30.1 °F /  -1.1 °C 13.7 °F /  -10.2 °C 29.96 in /  1014.4 hPa WNW 9.0 mph /  14.5 km/h 29.0 mph /  46.7 km/h 50 % 0.00 in /  0 mm
10:40 30.2 °F /  -1 °C 13.8 °F /  -10.1 °C 29.96 in /  1014.4 hPa West 6.8 mph /  10.9 km/h 29.0 mph /  46.7 km/h 50 % 0.00 in /  0 mm
10:45 30.3 °F /  -0.9 °C 14.3 °F /  -9.8 °C 29.95 in /  1014.1 hPa West 4.8 mph /  7.7 km/h 29.0 mph /  46.7 km/h 51 % 0.00 in /  0 mm
10:50 30.5 °F /  -0.8 °C 14.5 °F /  -9.7 °C 29.94 in /  1013.8 hPa WSW 8.7 mph /  14 km/h 29.0 mph /  46.7 km/h 51 % 0.00 in /  0 mm
10:55 30.5 °F /  -0.8 °C 14.0 °F /  -10 °C 29.94 in /  1013.8 hPa WNW 3.6 mph /  5.8 km/h 29.0 mph /  46.7 km/h 50 % 0.00 in /  0 mm
11:00 30.5 °F /  -0.8 °C 14.0 °F /  -10 °C 29.93 in /  1013.4 hPa West 6.5 mph /  10.5 km/h 29.0 mph /  46.7 km/h 50 % 0.00 in /  0 mm
11:05 30.5 °F /  -0.8 °C 13.6 °F /  -10.2 °C 29.93 in /  1013.4 hPa NW 5.4 mph /  8.7 km/h 29.0 mph /  46.7 km/h 49 % 0.00 in /  0 mm
11:10 30.6 °F /  -0.8 °C 14.1 °F /  -9.9 °C 29.93 in /  1013.4 hPa West 6.7 mph /  10.8 km/h 29.0 mph /  46.7 km/h 50 % 0.00 in /  0 mm
11:15 30.7 °F /  -0.7 °C 14.2 °F /  -9.9 °C 29.92 in /  1013.1 hPa West 1.9 mph /  3.1 km/h 29.0 mph /  46.7 km/h 50 % 0.00 in /  0 mm
11:20 30.8 °F /  -0.7 °C 14.3 °F /  -9.8 °C 29.92 in /  1013.1 hPa West 3.9 mph /  6.3 km/h 29.0 mph /  46.7 km/h 50 % 0.00 in /  0 mm
11:25 31.0 °F /  -0.6 °C 14.5 °F /  -9.7 °C 29.92 in /  1013.1 hPa WSW 5.2 mph /  8.4 km/h 29.0 mph /  46.7 km/h 50 % 0.00 in /  0 mm
11:30 31.0 °F /  -0.6 °C 14.5 °F /  -9.7 °C 29.92 in /  1013.1 hPa West 4.3 mph /  6.9 km/h 29.0 mph /  46.7 km/h 50 % 0.00 in /  0 mm
11:35 31.0 °F /  -0.6 °C 14.5 °F /  -9.7 °C 29.92 in /  1013.1 hPa WNW 6.6 mph /  10.6 km/h 29.0 mph /  46.7 km/h 50 % 0.00 in /  0 mm
11:40 30.9 °F /  -0.6 °C 14.4 °F /  -9.8 °C 29.91 in /  1012.8 hPa West 7.0 mph /  11.3 km/h 29.0 mph /  46.7 km/h 50 % 0.00 in /  0 mm
11:45 31.0 °F /  -0.6 °C 14.5 °F /  -9.7 °C 29.91 in /  1012.8 hPa NW 2.4 mph /  3.9 km/h 29.0 mph /  46.7 km/h 50 % 0.00 in /  0 mm
11:50 31.1 °F /  -0.5 °C 14.6 °F /  -9.7 °C 29.91 in /  1012.8 hPa WNW 1.0 mph /  1.6 km/h 29.0 mph /  46.7 km/h 50 % 0.00 in /  0 mm
11:55 31.3 °F /  -0.4 °C 14.8 °F /  -9.6 °C 29.91 in /  1012.8 hPa WSW 3.4 mph /  5.5 km/h 29.0 mph /  46.7 km/h 50 % 0.00 in /  0 mm
12:01 31.4 °F /  -0.3 °C 13.9 °F /  -10.1 °C 29.91 in /  1012.8 hPa West 5.0 mph /  8 km/h 29.0 mph /  46.7 km/h 48 % 0.00 in /  0 mm
12:06 31.4 °F /  -0.3 °C 14.4 °F /  -9.8 °C 29.92 in /  1013.1 hPa West 4.7 mph /  7.6 km/h 29.0 mph /  46.7 km/h 49 % 0.00 in /  0 mm
12:11 31.4 °F /  -0.3 °C 14.4 °F /  -9.8 °C 29.92 in /  1013.1 hPa NNW 7.8 mph /  12.6 km/h 29.0 mph /  46.7 km/h 49 % 0.00 in /  0 mm
12:16 31.4 °F /  -0.3 °C 14.4 °F /  -9.8 °C 29.92 in /  1013.1 hPa WNW 4.8 mph /  7.7 km/h 29.0 mph /  46.7 km/h 49 % 0.00 in /  0 mm
12:21 31.5 °F /  -0.3 °C 15.0 °F /  -9.4 °C 29.91 in /  1012.8 hPa WSW 6.0 mph /  9.7 km/h 29.0 mph /  46.7 km/h 50 % 0.00 in /  0 mm
12:26 31.5 °F /  -0.3 °C 14.5 °F /  -9.7 °C 29.91 in /  1012.8 hPa WSW 6.4 mph /  10.3 km/h 29.0 mph /  46.7 km/h 49 % 0.00 in /  0 mm
12:31 31.5 °F /  -0.3 °C 14.5 °F /  -9.7 °C 29.91 in /  1012.8 hPa WSW 7.8 mph /  12.6 km/h 29.0 mph /  46.7 km/h 49 % 0.00 in /  0 mm
12:36 31.7 °F /  -0.2 °C 15.2 °F /  -9.3 °C 29.91 in /  1012.8 hPa WSW 7.7 mph /  12.4 km/h 29.0 mph /  46.7 km/h 50 % 0.00 in /  0 mm
12:41 31.7 °F /  -0.2 °C 14.2 °F /  -9.9 °C 29.91 in /  1012.8 hPa WSW 5.2 mph /  8.4 km/h 29.0 mph /  46.7 km/h 48 % 0.00 in /  0 mm
12:46 31.7 °F /  -0.2 °C 14.2 °F /  -9.9 °C 29.91 in /  1012.8 hPa West 3.2 mph /  5.1 km/h 29.0 mph /  46.7 km/h 48 % 0.00 in /  0 mm
12:51 31.8 °F /  -0.1 °C 14.8 °F /  -9.6 °C 29.91 in /  1012.8 hPa WSW 5.6 mph /  9 km/h 29.0 mph /  46.7 km/h 49 % 0.00 in /  0 mm
12:56 31.9 °F /  -0.1 °C 14.9 °F /  -9.5 °C 29.90 in /  1012.4 hPa SW 5.3 mph /  8.5 km/h 29.0 mph /  46.7 km/h 49 % 0.00 in /  0 mm
13:01 32.1 °F /  0.1 °C 15.1 °F /  -9.4 °C 29.90 in /  1012.4 hPa West 6.3 mph /  10.1 km/h 29.0 mph /  46.7 km/h 49 % 0.00 in /  0 mm
13:06 32.2 °F /  0.1 °C 14.7 °F /  -9.6 °C 29.90 in /  1012.4 hPa WSW 7.9 mph /  12.7 km/h 29.0 mph /  46.7 km/h 48 % 0.00 in /  0 mm
13:12 32.3 °F /  0.2 °C 14.8 °F /  -9.6 °C 29.89 in /  1012.1 hPa West 2.3 mph /  3.7 km/h 29.0 mph /  46.7 km/h 48 % 0.00 in /  0 mm
13:17 32.4 °F /  0.2 °C 14.9 °F /  -9.5 °C 29.89 in /  1012.1 hPa SW 5.4 mph /  8.7 km/h 29.0 mph /  46.7 km/h 48 % 0.00 in /  0 mm
13:22 32.4 °F /  0.2 °C 14.4 °F /  -9.8 °C 29.89 in /  1012.1 hPa WNW 3.0 mph /  4.8 km/h 29.0 mph /  46.7 km/h 47 % 0.00 in /  0 mm
13:27 32.5 °F /  0.3 °C 15.0 °F /  -9.4 °C 29.89 in /  1012.1 hPa SW 2.4 mph /  3.9 km/h 29.0 mph /  46.7 km/h 48 % 0.00 in /  0 mm
13:32 32.6 °F /  0.3 °C 15.1 °F /  -9.4 °C 29.89 in /  1012.1 hPa NW 3.7 mph /  6 km/h 29.0 mph /  46.7 km/h 48 % 0.00 in /  0 mm
13:37 32.5 °F /  0.3 °C 14.5 °F /  -9.7 °C 29.89 in /  1012.1 hPa WNW 4.7 mph /  7.6 km/h 29.0 mph /  46.7 km/h 47 % 0.00 in /  0 mm
13:42 32.5 °F /  0.3 °C 15.0 °F /  -9.4 °C 29.89 in /  1012.1 hPa West 6.5 mph /  10.5 km/h 29.0 mph /  46.7 km/h 48 % 0.00 in /  0 mm
13:47 32.6 °F /  0.3 °C 14.6 °F /  -9.7 °C 29.90 in /  1012.4 hPa WNW 5.0 mph /  8 km/h 29.0 mph /  46.7 km/h 47 % 0.00 in /  0 mm
13:52 32.7 °F /  0.4 °C 14.7 °F /  -9.6 °C 29.90 in /  1012.4 hPa WSW 8.6 mph /  13.8 km/h 29.0 mph /  46.7 km/h 47 % 0.00 in /  0 mm
13:57 32.7 °F /  0.4 °C 14.7 °F /  -9.6 °C 29.90 in /  1012.4 hPa WSW 5.6 mph /  9 km/h 29.0 mph /  46.7 km/h 47 % 0.00 in /  0 mm
14:02 32.7 °F /  0.4 °C 14.7 °F /  -9.6 °C 29.90 in /  1012.4 hPa SW 6.8 mph /  10.9 km/h 29.0 mph /  46.7 km/h 47 % 0.00 in /  0 mm
14:07 32.6 °F /  0.3 °C 14.6 °F /  -9.7 °C 29.90 in /  1012.4 hPa West 3.1 mph /  5 km/h 29.0 mph /  46.7 km/h 47 % 0.00 in /  0 mm
14:12 32.7 °F /  0.4 °C 15.1 °F /  -9.4 °C 29.90 in /  1012.4 hPa WSW 5.8 mph /  9.3 km/h 29.0 mph /  46.7 km/h 48 % 0.00 in /  0 mm
14:18 32.7 °F /  0.4 °C 14.7 °F /  -9.6 °C 29.90 in /  1012.4 hPa SW 7.6 mph /  12.2 km/h 29.0 mph /  46.7 km/h 47 % 0.00 in /  0 mm
14:23 32.6 °F /  0.3 °C 15.1 °F /  -9.4 °C 29.90 in /  1012.4 hPa WSW 5.5 mph /  8.9 km/h 29.0 mph /  46.7 km/h 48 % 0.00 in /  0 mm
14:28 32.5 °F /  0.3 °C 14.5 °F /  -9.7 °C 29.90 in /  1012.4 hPa WSW 3.0 mph /  4.8 km/h 29.0 mph /  46.7 km/h 47 % 0.00 in /  0 mm
14:33 32.4 °F /  0.2 °C 14.4 °F /  -9.8 °C 29.90 in /  1012.4 hPa WNW 3.2 mph /  5.1 km/h 29.0 mph /  46.7 km/h 47 % 0.00 in /  0 mm
14:38 32.4 °F /  0.2 °C 14.9 °F /  -9.5 °C 29.90 in /  1012.4 hPa WNW 3.1 mph /  5 km/h 29.0 mph /  46.7 km/h 48 % 0.00 in /  0 mm
14:43 32.3 °F /  0.2 °C 14.8 °F /  -9.6 °C 29.90 in /  1012.4 hPa West 3.5 mph /  5.6 km/h 29.0 mph /  46.7 km/h 48 % 0.00 in /  0 mm
14:48 32.3 °F /  0.2 °C 15.3 °F /  -9.3 °C 29.89 in /  1012.1 hPa West 2.6 mph /  4.2 km/h 29.0 mph /  46.7 km/h 49 % 0.00 in /  0 mm
14:53 32.3 °F /  0.2 °C 15.3 °F /  -9.3 °C 29.90 in /  1012.4 hPa WSW 5.5 mph /  8.9 km/h 29.0 mph /  46.7 km/h 49 % 0.00 in /  0 mm
14:58 32.2 °F /  0.1 °C 14.7 °F /  -9.6 °C 29.90 in /  1012.4 hPa NW 4.9 mph /  7.9 km/h 29.0 mph /  46.7 km/h 48 % 0.00 in /  0 mm
15:03 32.1 °F /  0.1 °C 14.6 °F /  -9.7 °C 29.90 in /  1012.4 hPa WSW 5.2 mph /  8.4 km/h 29.0 mph /  46.7 km/h 48 % 0.00 in /  0 mm
15:08 32.1 °F /  0.1 °C 14.1 °F /  -9.9 °C 29.91 in /  1012.8 hPa WSW 4.2 mph /  6.8 km/h 29.0 mph /  46.7 km/h 47 % 0.00 in /  0 mm
15:13 32.1 °F /  0.1 °C 14.6 °F /  -9.7 °C 29.90 in /  1012.4 hPa WSW 5.6 mph /  9 km/h 29.0 mph /  46.7 km/h 48 % 0.00 in /  0 mm
15:18 32.0 °F /  0 °C 14.5 °F /  -9.7 °C 29.91 in /  1012.8 hPa SW 6.4 mph /  10.3 km/h 29.0 mph /  46.7 km/h 48 % 0.00 in /  0 mm
15:23 32.0 °F /  0 °C 15.0 °F /  -9.4 °C 29.90 in /  1012.4 hPa WSW 3.1 mph /  5 km/h 29.0 mph /  46.7 km/h 49 % 0.00 in /  0 mm
15:28 32.0 °F /  0 °C 14.5 °F /  -9.7 °C 29.90 in /  1012.4 hPa WSW 2.1 mph /  3.4 km/h 29.0 mph /  46.7 km/h 48 % 0.00 in /  0 mm
15:34 32.0 °F /  0 °C 15.0 °F /  -9.4 °C 29.90 in /  1012.4 hPa WSW 3.4 mph /  5.5 km/h 29.0 mph /  46.7 km/h 49 % 0.00 in /  0 mm
15:39 32.0 °F /  0 °C 14.5 °F /  -9.7 °C 29.90 in /  1012.4 hPa WSW 3.3 mph /  5.3 km/h 29.0 mph /  46.7 km/h 48 % 0.00 in /  0 mm
15:44 31.9 °F /  -0.1 °C 14.4 °F /  -9.8 °C 29.91 in /  1012.8 hPa SSW 4.7 mph /  7.6 km/h 29.0 mph /  46.7 km/h 48 % 0.00 in /  0 mm
15:49 31.9 °F /  -0.1 °C 14.4 °F /  -9.8 °C 29.90 in /  1012.4 hPa WSW 2.0 mph /  3.2 km/h 29.0 mph /  46.7 km/h 48 % 0.00 in /  0 mm
15:54 31.9 °F /  -0.1 °C 14.4 °F /  -9.8 °C 29.90 in /  1012.4 hPa SW 2.2 mph /  3.5 km/h 29.0 mph /  46.7 km/h 48 % 0.00 in /  0 mm
15:59 31.9 °F /  -0.1 °C 14.9 °F /  -9.5 °C 29.90 in /  1012.4 hPa WSW 4.9 mph /  7.9 km/h 29.0 mph /  46.7 km/h 49 % 0.00 in /  0 mm
16:04 31.8 °F /  -0.1 °C 14.3 °F /  -9.8 °C 29.90 in /  1012.4 hPa WSW 2.9 mph /  4.7 km/h 29.0 mph /  46.7 km/h 48 % 0.00 in /  0 mm
16:09 31.8 °F /  -0.1 °C 14.3 °F /  -9.8 °C 29.90 in /  1012.4 hPa WSW 5.1 mph /  8.2 km/h 29.0 mph /  46.7 km/h 48 % 0.00 in /  0 mm
16:14 31.7 °F /  -0.2 °C 14.7 °F /  -9.6 °C 29.90 in /  1012.4 hPa West 3.5 mph /  5.6 km/h 29.0 mph /  46.7 km/h 49 % 0.00 in /  0 mm
16:19 31.7 °F /  -0.2 °C 14.7 °F /  -9.6 °C 29.90 in /  1012.4 hPa WSW 5.9 mph /  9.5 km/h 29.0 mph /  46.7 km/h 49 % 0.00 in /  0 mm
16:24 31.6 °F /  -0.2 °C 14.6 °F /  -9.7 °C 29.90 in /  1012.4 hPa WSW 3.0 mph /  4.8 km/h 7.0 mph /  11.3 km/h 49 % 0.00 in /  0 mm
16:29 31.6 °F /  -0.2 °C 14.1 °F /  -9.9 °C 29.90 in /  1012.4 hPa WSW 3.0 mph /  4.8 km/h 7.0 mph /  11.3 km/h 48 % 0.00 in /  0 mm
16:34 31.5 °F /  -0.3 °C 14.5 °F /  -9.7 °C 29.88 in /  1011.7 hPa WSW 1.7 mph /  2.7 km/h 29.0 mph /  46.7 km/h 49 % 0.00 in /  0 mm
16:39 31.5 °F /  -0.3 °C 14.5 °F /  -9.7 °C 29.89 in /  1012.1 hPa SSW 1.4 mph /  2.3 km/h 29.0 mph /  46.7 km/h 49 % 0.00 in /  0 mm
16:44 31.4 °F /  -0.3 °C 14.9 °F /  -9.5 °C 29.88 in /  1011.7 hPa WSW 2.4 mph /  3.9 km/h 29.0 mph /  46.7 km/h 50 % 0.00 in /  0 mm
16:49 31.4 °F /  -0.3 °C 14.4 °F /  -9.8 °C 29.89 in /  1012.1 hPa SW 1.6 mph /  2.6 km/h 29.0 mph /  46.7 km/h 49 % 0.00 in /  0 mm
16:54 31.3 °F /  -0.4 °C 14.8 °F /  -9.6 °C 29.89 in /  1012.1 hPa SW 1.4 mph /  2.3 km/h 29.0 mph /  46.7 km/h 50 % 0.00 in /  0 mm
16:59 31.3 °F /  -0.4 °C 14.3 °F /  -9.8 °C 29.89 in /  1012.1 hPa WSW 1.1 mph /  1.8 km/h 29.0 mph /  46.7 km/h 49 % 0.00 in /  0 mm
17:04 31.2 °F /  -0.4 °C 14.7 °F /  -9.6 °C 29.90 in /  1012.4 hPa SW 2.1 mph /  3.4 km/h 29.0 mph /  46.7 km/h 50 % 0.00 in /  0 mm
17:10 31.2 °F /  -0.4 °C 14.7 °F /  -9.6 °C 29.90 in /  1012.4 hPa SW 1.5 mph /  2.4 km/h 29.0 mph /  46.7 km/h 50 % 0.00 in /  0 mm
17:15 31.2 °F /  -0.4 °C 14.7 °F /  -9.6 °C 29.90 in /  1012.4 hPa SW 0.8 mph /  1.3 km/h 29.0 mph /  46.7 km/h 50 % 0.00 in /  0 mm
17:20 31.2 °F /  -0.4 °C 14.7 °F /  -9.6 °C 29.90 in /  1012.4 hPa SW 0.6 mph /  1 km/h 29.0 mph /  46.7 km/h 50 % 0.00 in /  0 mm
17:25 31.2 °F /  -0.4 °C 15.2 °F /  -9.3 °C 29.90 in /  1012.4 hPa SW 1.2 mph /  1.9 km/h 29.0 mph /  46.7 km/h 51 % 0.00 in /  0 mm
17:30 31.2 °F /  -0.4 °C 15.2 °F /  -9.3 °C 29.90 in /  1012.4 hPa SW 0.9 mph /  1.4 km/h 29.0 mph /  46.7 km/h 51 % 0.00 in /  0 mm
17:35 31.2 °F /  -0.4 °C 15.6 °F /  -9.1 °C 29.90 in /  1012.4 hPa SW 0.6 mph /  1 km/h 29.0 mph /  46.7 km/h 52 % 0.00 in /  0 mm
17:40 31.2 °F /  -0.4 °C 15.6 °F /  -9.1 °C 29.91 in /  1012.8 hPa SW 0.3 mph /  0.5 km/h 29.0 mph /  46.7 km/h 52 % 0.00 in /  0 mm
17:45 31.2 °F /  -0.4 °C 15.6 °F /  -9.1 °C 29.90 in /  1012.4 hPa SW 0.4 mph /  0.6 km/h 29.0 mph /  46.7 km/h 52 % 0.00 in /  0 mm
17:50 31.1 °F /  -0.5 °C 15.5 °F /  -9.2 °C 29.91 in /  1012.8 hPa SW 1.2 mph /  1.9 km/h 29.0 mph /  46.7 km/h 52 % 0.00 in /  0 mm
17:55 31.1 °F /  -0.5 °C 15.5 °F /  -9.2 °C 29.91 in /  1012.8 hPa Calm   29.0 mph /  46.7 km/h 52 % 0.00 in /  0 mm
18:00 31.0 °F /  -0.6 °C 15.8 °F /  -9 °C 29.92 in /  1013.1 hPa SW 0.4 mph /  0.6 km/h 29.0 mph /  46.7 km/h 53 % 0.00 in /  0 mm
18:05 30.9 °F /  -0.6 °C 15.8 °F /  -9 °C 29.92 in /  1013.1 hPa SW 0.3 mph /  0.5 km/h 29.0 mph /  46.7 km/h 53 % 0.00 in /  0 mm
18:10 30.8 °F /  -0.7 °C 15.7 °F /  -9.1 °C 29.92 in /  1013.1 hPa SW 1.2 mph /  1.9 km/h 29.0 mph /  46.7 km/h 53 % 0.00 in /  0 mm
18:15 30.7 °F /  -0.7 °C 15.6 °F /  -9.1 °C 29.92 in /  1013.1 hPa SW 1.0 mph /  1.6 km/h 29.0 mph /  46.7 km/h 53 % 0.00 in /  0 mm
18:20 30.6 °F /  -0.8 °C 15.5 °F /  -9.2 °C 29.92 in /  1013.1 hPa SW 1.1 mph /  1.8 km/h 29.0 mph /  46.7 km/h 53 % 0.00 in /  0 mm
18:25 30.5 °F /  -0.8 °C 15.4 °F /  -9.2 °C 29.92 in /  1013.1 hPa SW 1.8 mph /  2.9 km/h 29.0 mph /  46.7 km/h 53 % 0.00 in /  0 mm
18:30 30.5 °F /  -0.8 °C 15.8 °F /  -9 °C 29.92 in /  1013.1 hPa SW 2.0 mph /  3.2 km/h 29.0 mph /  46.7 km/h 54 % 0.00 in /  0 mm
18:36 30.5 °F /  -0.8 °C 15.8 °F /  -9 °C 29.92 in /  1013.1 hPa SW 1.4 mph /  2.3 km/h 29.0 mph /  46.7 km/h 54 % 0.00 in /  0 mm
18:41 30.4 °F /  -0.9 °C 15.7 °F /  -9.1 °C 29.92 in /  1013.1 hPa SW 1.6 mph /  2.6 km/h 29.0 mph /  46.7 km/h 54 % 0.00 in /  0 mm
18:46 30.4 °F /  -0.9 °C 15.7 °F /  -9.1 °C 29.93 in /  1013.4 hPa SSW 3.2 mph /  5.1 km/h 29.0 mph /  46.7 km/h 54 % 0.00 in /  0 mm
18:51 30.5 °F /  -0.8 °C 15.8 °F /  -9 °C 29.92 in /  1013.1 hPa SW 0.7 mph /  1.1 km/h 29.0 mph /  46.7 km/h 54 % 0.00 in /  0 mm
18:56 30.5 °F /  -0.8 °C 15.8 °F /  -9 °C 29.92 in /  1013.1 hPa SSW 3.8 mph /  6.1 km/h 29.0 mph /  46.7 km/h 54 % 0.00 in /  0 mm
19:01 30.5 °F /  -0.8 °C 15.8 °F /  -9 °C 29.92 in /  1013.1 hPa SSW 1.4 mph /  2.3 km/h 29.0 mph /  46.7 km/h 54 % 0.00 in /  0 mm
19:06 30.6 °F /  -0.8 °C 15.9 °F /  -8.9 °C 29.92 in /  1013.1 hPa SSW 1.1 mph /  1.8 km/h 29.0 mph /  46.7 km/h 54 % 0.00 in /  0 mm
19:11 30.7 °F /  -0.7 °C 16.0 °F /  -8.9 °C 29.92 in /  1013.1 hPa SW 1.0 mph /  1.6 km/h 29.0 mph /  46.7 km/h 54 % 0.00 in /  0 mm
19:16 30.7 °F /  -0.7 °C 16.4 °F /  -8.7 °C 29.92 in /  1013.1 hPa SW 3.3 mph /  5.3 km/h 29.0 mph /  46.7 km/h 55 % 0.00 in /  0 mm
19:21 30.8 °F /  -0.7 °C 16.1 °F /  -8.8 °C 29.93 in /  1013.4 hPa SW 3.3 mph /  5.3 km/h 29.0 mph /  46.7 km/h 54 % 0.00 in /  0 mm
19:26 30.8 °F /  -0.7 °C 16.1 °F /  -8.8 °C 29.92 in /  1013.1 hPa WSW 0.1 mph /  0.2 km/h 29.0 mph /  46.7 km/h 54 % 0.00 in /  0 mm
19:31 30.9 °F /  -0.6 °C 16.6 °F /  -8.6 °C 29.92 in /  1013.1 hPa SW 0.7 mph /  1.1 km/h 29.0 mph /  46.7 km/h 55 % 0.00 in /  0 mm
19:36 30.9 °F /  -0.6 °C 16.2 °F /  -8.8 °C 29.91 in /  1012.8 hPa South 1.2 mph /  1.9 km/h 29.0 mph /  46.7 km/h 54 % 0.00 in /  0 mm
19:41 30.9 °F /  -0.6 °C 16.2 °F /  -8.8 °C 29.92 in /  1013.1 hPa SSW 2.3 mph /  3.7 km/h 29.0 mph /  46.7 km/h 54 % 0.00 in /  0 mm
19:46 30.9 °F /  -0.6 °C 16.6 °F /  -8.6 °C 29.92 in /  1013.1 hPa SW 1.6 mph /  2.6 km/h 29.0 mph /  46.7 km/h 55 % 0.00 in /  0 mm
19:51 30.9 °F /  -0.6 °C 16.2 °F /  -8.8 °C 29.93 in /  1013.4 hPa SSW 0.7 mph /  1.1 km/h 29.0 mph /  46.7 km/h 54 % 0.00 in /  0 mm
19:57 30.9 °F /  -0.6 °C 16.2 °F /  -8.8 °C 29.93 in /  1013.4 hPa SW 1.7 mph /  2.7 km/h 29.0 mph /  46.7 km/h 54 % 0.00 in /  0 mm
20:02 30.9 °F /  -0.6 °C 16.6 °F /  -8.6 °C 29.94 in /  1013.8 hPa West 2.2 mph /  3.5 km/h 29.0 mph /  46.7 km/h 55 % 0.00 in /  0 mm
20:07 30.9 °F /  -0.6 °C 16.6 °F /  -8.6 °C 29.94 in /  1013.8 hPa SW 2.3 mph /  3.7 km/h 29.0 mph /  46.7 km/h 55 % 0.00 in /  0 mm
20:12 30.9 °F /  -0.6 °C 16.6 °F /  -8.6 °C 29.94 in /  1013.8 hPa SW 2.4 mph /  3.9 km/h 29.0 mph /  46.7 km/h 55 % 0.00 in /  0 mm
20:17 31.0 °F /  -0.6 °C 17.1 °F /  -8.3 °C 29.94 in /  1013.8 hPa WSW 3.8 mph /  6.1 km/h 29.0 mph /  46.7 km/h 56 % 0.00 in /  0 mm
20:22 31.1 °F /  -0.5 °C 17.2 °F /  -8.2 °C 29.94 in /  1013.8 hPa SSW 0.9 mph /  1.4 km/h 29.0 mph /  46.7 km/h 56 % 0.00 in /  0 mm
20:27 31.1 °F /  -0.5 °C 17.2 °F /  -8.2 °C 29.93 in /  1013.4 hPa WSW 0.1 mph /  0.2 km/h 29.0 mph /  46.7 km/h 56 % 0.00 in /  0 mm
20:32 31.2 °F /  -0.4 °C 17.3 °F /  -8.2 °C 29.92 in /  1013.1 hPa WSW 0.8 mph /  1.3 km/h 29.0 mph /  46.7 km/h 56 % 0.00 in /  0 mm
20:37 31.2 °F /  -0.4 °C 17.3 °F /  -8.2 °C 29.92 in /  1013.1 hPa SW 0.2 mph /  0.3 km/h 29.0 mph /  46.7 km/h 56 % 0.00 in /  0 mm
20:42 31.3 °F /  -0.4 °C 17.0 °F /  -8.3 °C 29.93 in /  1013.4 hPa SW 0.6 mph /  1 km/h 29.0 mph /  46.7 km/h 55 % 0.00 in /  0 mm
20:47 31.4 °F /  -0.3 °C 17.1 °F /  -8.3 °C 29.94 in /  1013.8 hPa SW 1.9 mph /  3.1 km/h 29.0 mph /  46.7 km/h 55 % 0.00 in /  0 mm
20:52 31.4 °F /  -0.3 °C 17.1 °F /  -8.3 °C 29.94 in /  1013.8 hPa WSW 1.3 mph /  2.1 km/h 29.0 mph /  46.7 km/h 55 % 0.00 in /  0 mm
20:57 31.4 °F /  -0.3 °C 17.1 °F /  -8.3 °C 29.94 in /  1013.8 hPa WSW 0.8 mph /  1.3 km/h 29.0 mph /  46.7 km/h 55 % 0.00 in /  0 mm
21:03 31.5 °F /  -0.3 °C 17.2 °F /  -8.2 °C 29.93 in /  1013.4 hPa SW 1.5 mph /  2.4 km/h 29.0 mph /  46.7 km/h 55 % 0.00 in /  0 mm
21:08 31.5 °F /  -0.3 °C 17.2 °F /  -8.2 °C 29.94 in /  1013.8 hPa SW 3.8 mph /  6.1 km/h 29.0 mph /  46.7 km/h 55 % 0.00 in /  0 mm
21:13 31.6 °F /  -0.2 °C 17.3 °F /  -8.2 °C 29.94 in /  1013.8 hPa SW 4.3 mph /  6.9 km/h 29.0 mph /  46.7 km/h 55 % 0.00 in /  0 mm
21:18 31.6 °F /  -0.2 °C 17.3 °F /  -8.2 °C 29.94 in /  1013.8 hPa West 1.7 mph /  2.7 km/h 29.0 mph /  46.7 km/h 55 % 0.00 in /  0 mm
21:23 31.7 °F /  -0.2 °C 17.4 °F /  -8.1 °C 29.94 in /  1013.8 hPa WSW 2.8 mph /  4.5 km/h 29.0 mph /  46.7 km/h 55 % 0.00 in /  0 mm
21:28 31.7 °F /  -0.2 °C 17.4 °F /  -8.1 °C 29.94 in /  1013.8 hPa WSW 1.7 mph /  2.7 km/h 29.0 mph /  46.7 km/h 55 % 0.00 in /  0 mm
21:33 31.7 °F /  -0.2 °C 17.4 °F /  -8.1 °C 29.94 in /  1013.8 hPa SW 1.1 mph /  1.8 km/h 29.0 mph /  46.7 km/h 55 % 0.00 in /  0 mm
21:39 31.7 °F /  -0.2 °C 17.4 °F /  -8.1 °C 29.94 in /  1013.8 hPa SSW 4.0 mph /  6.4 km/h 29.0 mph /  46.7 km/h 55 % 0.00 in /  0 mm
21:44 31.8 °F /  -0.1 °C 17.0 °F /  -8.3 °C 29.93 in /  1013.4 hPa SSW 2.8 mph /  4.5 km/h 29.0 mph /  46.7 km/h 54 % 0.00 in /  0 mm
21:49 31.8 °F /  -0.1 °C 17.0 °F /  -8.3 °C 29.93 in /  1013.4 hPa SSW 3.2 mph /  5.1 km/h 29.0 mph /  46.7 km/h 54 % 0.00 in /  0 mm
21:54 31.9 °F /  -0.1 °C 17.5 °F /  -8.1 °C 29.93 in /  1013.4 hPa SW 2.5 mph /  4 km/h 29.0 mph /  46.7 km/h 55 % 0.00 in /  0 mm
21:59 31.9 °F /  -0.1 °C 17.5 °F /  -8.1 °C 29.93 in /  1013.4 hPa South 2.2 mph /  3.5 km/h 29.0 mph /  46.7 km/h 55 % 0.00 in /  0 mm
22:04 31.9 °F /  -0.1 °C 17.5 °F /  -8.1 °C 29.93 in /  1013.4 hPa WSW 4.7 mph /  7.6 km/h 29.0 mph /  46.7 km/h 55 % 0.00 in /  0 mm
22:09 32.0 °F /  0 °C 17.6 °F /  -8 °C 29.94 in /  1013.8 hPa SW 2.6 mph /  4.2 km/h 29.0 mph /  46.7 km/h 55 % 0.00 in /  0 mm
22:14 32.0 °F /  0 °C 17.6 °F /  -8 °C 29.93 in /  1013.4 hPa SW 2.0 mph /  3.2 km/h 7.0 mph /  11.3 km/h 55 % 0.00 in /  0 mm
22:19 32.1 °F /  0.1 °C 18.1 °F /  -7.7 °C 29.93 in /  1013.4 hPa WSW 6.0 mph /  9.7 km/h 9.0 mph /  14.5 km/h 56 % 0.00 in /  0 mm
22:24 32.1 °F /  0.1 °C 18.2 °F /  -7.7 °C 29.93 in /  1013.4 hPa SW 2.0 mph /  3.2 km/h 5.0 mph /  8 km/h 56 % 0.00 in /  0 mm
22:29 32.2 °F /  0.1 °C 18.2 °F /  -7.7 °C 29.93 in /  1013.4 hPa SW 3.0 mph /  4.8 km/h 8.0 mph /  12.9 km/h 56 % 0.00 in /  0 mm
22:34 32.2 °F /  0.1 °C 18.2 °F /  -7.7 °C 29.92 in /  1013.1 hPa SW 3.0 mph /  4.8 km/h 8.0 mph /  12.9 km/h 56 % 0.00 in /  0 mm
22:39 32.2 °F /  0.1 °C 18.3 °F /  -7.6 °C 29.92 in /  1013.1 hPa SW 2.0 mph /  3.2 km/h 6.0 mph /  9.7 km/h 56 % 0.00 in /  0 mm
22:44 32.2 °F /  0.1 °C 18.2 °F /  -7.7 °C 29.92 in /  1013.1 hPa Calm   5.0 mph /  8 km/h 56 % 0.00 in /  0 mm
22:49 32.2 °F /  0.1 °C 18.2 °F /  -7.7 °C 29.92 in /  1013.1 hPa WSW 2.0 mph /  3.2 km/h 10.0 mph /  16.1 km/h 56 % 0.00 in /  0 mm
22:54 32.2 °F /  0.1 °C 18.2 °F /  -7.7 °C 29.92 in /  1013.1 hPa WSW 3.0 mph /  4.8 km/h 6.0 mph /  9.7 km/h 56 % 0.00 in /  0 mm
22:59 32.1 °F /  0.1 °C 18.2 °F /  -7.7 °C 29.93 in /  1013.4 hPa SSW 2.3 mph /  3.7 km/h 29.0 mph /  46.7 km/h 56 % 0.00 in /  0 mm
23:04 32.1 °F /  0.1 °C 18.2 °F /  -7.7 °C 29.93 in /  1013.4 hPa SW 1.0 mph /  1.6 km/h 6.0 mph /  9.7 km/h 56 % 0.00 in /  0 mm
23:09 32.1 °F /  0.1 °C 18.2 °F /  -7.7 °C 29.93 in /  1013.4 hPa SW 2.0 mph /  3.2 km/h 5.0 mph /  8 km/h 56 % 0.00 in /  0 mm
23:14 32.1 °F /  0.1 °C 18.1 °F /  -7.7 °C 29.93 in /  1013.4 hPa SW 2.0 mph /  3.2 km/h 6.0 mph /  9.7 km/h 56 % 0.00 in /  0 mm
23:19 32.0 °F /  0 °C 18.1 °F /  -7.7 °C 29.93 in /  1013.4 hPa SW 2.4 mph /  3.9 km/h 29.0 mph /  46.7 km/h 56 % 0.00 in /  0 mm
23:24 32.0 °F /  0 °C 18.5 °F /  -7.5 °C 29.93 in /  1013.4 hPa SW 2.0 mph /  3.2 km/h 5.0 mph /  8 km/h 57 % 0.00 in /  0 mm
23:29 32.0 °F /  0 °C 18.5 °F /  -7.5 °C 29.92 in /  1013.1 hPa SW 1.0 mph /  1.6 km/h 4.0 mph /  6.4 km/h 57 % 0.00 in /  0 mm
23:34 32.0 °F /  0 °C 18.8 °F /  -7.3 °C 29.92 in /  1013.1 hPa SSW 1.0 mph /  1.6 km/h 4.0 mph /  6.4 km/h 58 % 0.00 in /  0 mm
23:39 31.9 °F /  -0.1 °C 18.4 °F /  -7.6 °C 29.92 in /  1013.1 hPa Calm   2.0 mph /  3.2 km/h 57 % 0.00 in /  0 mm
23:44 31.9 °F /  -0.1 °C 18.4 °F /  -7.6 °C 29.92 in /  1013.1 hPa SSW 0.4 mph /  0.6 km/h 29.0 mph /  46.7 km/h 57 % 0.00 in /  0 mm
23:49 31.9 °F /  -0.1 °C 18.4 °F /  -7.6 °C 29.92 in /  1013.1 hPa SSW 0.5 mph /  0.8 km/h 29.0 mph /  46.7 km/h 57 % 0.00 in /  0 mm
23:54 31.9 °F /  -0.1 °C 18.4 °F /  -7.6 °C 29.92 in /  1013.1 hPa SSW 0.4 mph /  0.6 km/h 29.0 mph /  46.7 km/h 57 % 0.00 in /  0 mm
23:59 31.9 °F /  -0.1 °C 18.4 °F /  -7.6 °C 29.92 in /  1013.1 hPa SW 0.4 mph /  0.6 km/h 29.0 mph /  46.7 km/h 57 % 0.00 in /  0 mm
Crab Meadow Weather
Compliments of Weather Underground - 3 mb

Script developed by  Jim McMurry - jmcmurry@mwt.net Adapted for the template by  Wim van der Kuil - Leuven-Template.eu

Astronomy: Pluto is not a planet, because it does not have a fixed orbit and it's orbit comes in between the orbit of another planet (Neptune).